DBECF EDCM-EDBJ
Flight info
| Callsign | DBECF |
|---|---|
| Flight time | N/A |
| Altitude | 8000 |
| Route | DCT RENDO DCT GOLAT DCT |
| Aircraft | C172/L-SFG/C |
Departure
| Time | 2026-04-26 10:53 |
|---|---|
| Airport | Kamenz Airfield (EDCM) |
Arrival
| Time | N/A |
|---|---|
| Airport | Jena-Schöngleina Airfield (EDBJ) |
| Time | Latitude | Longitude | Altitude | Speed | Heading |
|---|---|---|---|---|---|
| 2026-04-26 10:44 | 51.29010 | 14.11919 | 502 ft | 0 kts | 197° |
| 2026-04-26 10:48 | 51.29000 | 14.11949 | 502 ft | 6 kts | 22° |
| 2026-04-26 10:48 | 51.29032 | 14.11998 | 502 ft | 8 kts | 72° |
| 2026-04-26 10:48 | 51.29041 | 14.12091 | 502 ft | 9 kts | 68° |
| 2026-04-26 10:48 | 51.29071 | 14.12193 | 502 ft | 11 kts | 64° |
| 2026-04-26 10:49 | 51.29101 | 14.12307 | 502 ft | 13 kts | 72° |
| 2026-04-26 10:49 | 51.29134 | 14.12446 | 502 ft | 13 kts | 61° |
| 2026-04-26 10:49 | 51.29210 | 14.12441 | 502 ft | 12 kts | 320° |
| 2026-04-26 10:49 | 51.29276 | 14.12371 | 503 ft | 10 kts | 1° |
| 2026-04-26 10:50 | 51.29296 | 14.12384 | 503 ft | 0 kts | 33° |
| 2026-04-26 10:51 | 51.29369 | 14.12452 | 503 ft | 36 kts | 34° |
| 2026-04-26 10:51 | 51.29697 | 14.12815 | 569 ft | 68 kts | 28° |
| 2026-04-26 10:52 | 51.30042 | 14.13263 | 834 ft | 64 kts | 31° |
| 2026-04-26 10:52 | 51.30437 | 14.13683 | 1088 ft | 66 kts | 31° |
| 2026-04-26 10:52 | 51.30887 | 14.14276 | 1052 ft | 99 kts | 30° |
| 2026-04-26 10:52 | 51.31458 | 14.15030 | 1056 ft | 115 kts | 34° |
| 2026-04-26 10:53 | 51.32074 | 14.15789 | 1196 ft | 115 kts | 31° |
| 2026-04-26 10:53 | 51.32720 | 14.16590 | 1307 ft | 117 kts | 33° |
| 2026-04-26 10:53 | 51.33309 | 14.17372 | 1733 ft | 107 kts | 35° |
| 2026-04-26 10:54 | 51.34636 | 14.19103 | 2072 ft | 108 kts | 29° |
| 2026-04-26 10:54 | 51.35252 | 14.19804 | 2238 ft | 120 kts | 21° |
| 2026-04-26 10:54 | 51.35930 | 14.20521 | 2331 ft | 123 kts | 25° |
| 2026-04-26 10:54 | 51.36613 | 14.21313 | 2553 ft | 114 kts | 33° |
| 2026-04-26 10:55 | 51.37150 | 14.22079 | 2899 ft | 93 kts | 32° |
| 2026-04-26 10:55 | 51.37625 | 14.22767 | 3201 ft | 88 kts | 14° |
| 2026-04-26 10:55 | 51.37955 | 14.22540 | 3547 ft | 45 kts | 298° |
| 2026-04-26 10:55 | 51.38185 | 14.22155 | 3792 ft | 61 kts | 308° |
| 2026-04-26 10:56 | 51.38515 | 14.21497 | 3818 ft | 86 kts | 306° |
| 2026-04-26 10:56 | 51.38919 | 14.20653 | 3811 ft | 100 kts | 305° |
| 2026-04-26 10:56 | 51.39353 | 14.19743 | 3791 ft | 104 kts | 306° |
| 2026-04-26 10:56 | 51.39789 | 14.18832 | 3769 ft | 103 kts | 306° |
| 2026-04-26 10:57 | 51.40224 | 14.17928 | 3766 ft | 102 kts | 306° |
| 2026-04-26 10:57 | 51.40639 | 14.17058 | 3771 ft | 95 kts | 306° |
| 2026-04-26 10:57 | 51.41031 | 14.16241 | 3769 ft | 92 kts | 306° |
| 2026-04-26 10:57 | 51.41417 | 14.15438 | 3773 ft | 89 kts | 306° |
| 2026-04-26 10:58 | 51.41772 | 14.14576 | 3760 ft | 94 kts | 303° |
| 2026-04-26 10:58 | 51.42124 | 14.13717 | 3775 ft | 91 kts | 302° |
| 2026-04-26 10:58 | 51.42471 | 14.12876 | 3776 ft | 92 kts | 302° |
| 2026-04-26 10:58 | 51.42820 | 14.12017 | 3779 ft | 91 kts | 302° |
| 2026-04-26 10:59 | 51.43164 | 14.11158 | 3775 ft | 91 kts | 302° |
| 2026-04-26 10:59 | 51.43507 | 14.10307 | 3778 ft | 93 kts | 303° |
| 2026-04-26 10:59 | 51.43886 | 14.09369 | 3769 ft | 104 kts | 301° |
| 2026-04-26 10:59 | 51.44265 | 14.08430 | 3787 ft | 103 kts | 302° |
| 2026-04-26 11:00 | 51.44657 | 14.07481 | 3769 ft | 98 kts | 302° |
| 2026-04-26 11:00 | 51.45017 | 14.06598 | 3772 ft | 93 kts | 302° |
| 2026-04-26 11:00 | 51.45368 | 14.05733 | 3768 ft | 90 kts | 302° |
| 2026-04-26 11:00 | 51.45696 | 14.04911 | 3790 ft | 87 kts | 302° |
| 2026-04-26 11:01 | 51.46038 | 14.04049 | 3775 ft | 91 kts | 298° |
| 2026-04-26 11:01 | 51.46054 | 14.03039 | 3800 ft | 93 kts | 270° |
| 2026-04-26 11:01 | 51.45987 | 14.01988 | 3776 ft | 94 kts | 271° |
| 2026-04-26 11:01 | 51.45909 | 14.00921 | 3771 ft | 97 kts | 264° |
| 2026-04-26 11:02 | 51.45500 | 14.00002 | 3770 ft | 104 kts | 241° |
| 2026-04-26 11:02 | 51.44984 | 13.99161 | 3771 ft | 108 kts | 231° |
| 2026-04-26 11:02 | 51.44399 | 13.98408 | 3772 ft | 109 kts | 231° |
| 2026-04-26 11:02 | 51.43800 | 13.97634 | 3778 ft | 113 kts | 230° |
| 2026-04-26 11:03 | 51.43207 | 13.96854 | 3781 ft | 109 kts | 231° |
| 2026-04-26 11:03 | 51.42632 | 13.96087 | 3783 ft | 108 kts | 231° |
| 2026-04-26 11:03 | 51.42053 | 13.95316 | 3782 ft | 107 kts | 231° |
| 2026-04-26 11:03 | 51.41482 | 13.94555 | 3779 ft | 107 kts | 231° |
| 2026-04-26 11:04 | 51.41009 | 13.93694 | 3781 ft | 99 kts | 250° |
| 2026-04-26 11:04 | 51.40679 | 13.92741 | 3778 ft | 99 kts | 251° |
| 2026-04-26 11:04 | 51.40343 | 13.91781 | 3787 ft | 98 kts | 251° |
| 2026-04-26 11:04 | 51.40010 | 13.90823 | 3785 ft | 101 kts | 251° |
| 2026-04-26 11:05 | 51.39651 | 13.89767 | 3788 ft | 110 kts | 251° |
| 2026-04-26 11:05 | 51.39298 | 13.88694 | 3793 ft | 113 kts | 252° |
| 2026-04-26 11:05 | 51.38934 | 13.87570 | 3791 ft | 112 kts | 252° |
| 2026-04-26 11:05 | 51.38576 | 13.86492 | 3787 ft | 109 kts | 251° |
| 2026-04-26 11:06 | 51.38222 | 13.85434 | 3793 ft | 107 kts | 251° |
| 2026-04-26 11:06 | 51.37991 | 13.84737 | 3790 ft | 107 kts | 251° |
| 2026-04-26 11:06 | 51.37686 | 13.83311 | 3793 ft | 98 kts | 281° |
| 2026-04-26 11:06 | 51.37748 | 13.82243 | 3792 ft | 98 kts | 271° |
| 2026-04-26 11:07 | 51.37687 | 13.81144 | 3792 ft | 99 kts | 272° |
| 2026-04-26 11:07 | 51.37632 | 13.80055 | 3814 ft | 100 kts | 271° |
| 2026-04-26 11:07 | 51.37575 | 13.78942 | 3816 ft | 99 kts | 272° |
| 2026-04-26 11:07 | 51.37548 | 13.77812 | 3800 ft | 102 kts | 273° |
| 2026-04-26 11:08 | 51.37510 | 13.76671 | 3790 ft | 104 kts | 272° |
| 2026-04-26 11:08 | 51.37465 | 13.75526 | 3801 ft | 102 kts | 270° |
| 2026-04-26 11:08 | 51.37032 | 13.74599 | 3798 ft | 114 kts | 225° |
| 2026-04-26 11:08 | 51.36387 | 13.73862 | 3808 ft | 116 kts | 226° |
| 2026-04-26 11:09 | 51.35735 | 13.73068 | 3782 ft | 122 kts | 226° |
| 2026-04-26 11:09 | 51.35042 | 13.72258 | 3791 ft | 122 kts | 226° |
| 2026-04-26 11:09 | 51.34420 | 13.71426 | 3800 ft | 115 kts | 232° |
| 2026-04-26 11:09 | 51.33813 | 13.70543 | 3805 ft | 117 kts | 232° |
| 2026-04-26 11:10 | 51.33202 | 13.69637 | 3812 ft | 125 kts | 232° |
| 2026-04-26 11:10 | 51.32561 | 13.68665 | 3812 ft | 127 kts | 232° |
| 2026-04-26 11:10 | 51.31922 | 13.67707 | 3804 ft | 125 kts | 232° |
| 2026-04-26 11:10 | 51.31295 | 13.66760 | 3835 ft | 117 kts | 233° |
| 2026-04-26 11:11 | 51.30705 | 13.65901 | 3975 ft | 118 kts | 232° |
| 2026-04-26 11:11 | 51.30074 | 13.64967 | 4085 ft | 126 kts | 231° |
| 2026-04-26 11:11 | 51.29449 | 13.64040 | 4166 ft | 120 kts | 232° |
| 2026-04-26 11:11 | 51.28842 | 13.63140 | 4268 ft | 120 kts | 232° |
| 2026-04-26 11:12 | 51.28252 | 13.62252 | 4367 ft | 116 kts | 232° |
| 2026-04-26 11:12 | 51.27665 | 13.61376 | 4468 ft | 114 kts | 232° |
| 2026-04-26 11:12 | 51.27092 | 13.60528 | 4562 ft | 112 kts | 232° |
| 2026-04-26 11:12 | 51.26511 | 13.59680 | 4667 ft | 112 kts | 232° |
| 2026-04-26 11:13 | 51.25929 | 13.58817 | 4770 ft | 116 kts | 232° |
| 2026-04-26 11:13 | 51.25332 | 13.57929 | 4887 ft | 118 kts | 232° |
| 2026-04-26 11:13 | 51.24719 | 13.57007 | 4990 ft | 122 kts | 232° |
| 2026-04-26 11:13 | 51.24103 | 13.56089 | 5089 ft | 122 kts | 232° |
| 2026-04-26 11:14 | 51.23483 | 13.55170 | 5194 ft | 122 kts | 232° |
| 2026-04-26 11:14 | 51.22865 | 13.54243 | 5296 ft | 122 kts | 232° |
| 2026-04-26 11:14 | 51.22245 | 13.53303 | 5304 ft | 126 kts | 232° |
| 2026-04-26 11:14 | 51.21816 | 13.52639 | 5309 ft | 129 kts | 232° |
| 2026-04-26 11:15 | 51.20964 | 13.51311 | 5309 ft | 128 kts | 232° |
| 2026-04-26 11:15 | 51.20340 | 13.50364 | 5309 ft | 123 kts | 232° |
| 2026-04-26 11:15 | 51.19710 | 13.49417 | 5299 ft | 123 kts | 232° |
| 2026-04-26 11:15 | 51.19106 | 13.48509 | 5302 ft | 118 kts | 232° |
| 2026-04-26 11:16 | 51.18511 | 13.47617 | 5312 ft | 117 kts | 233° |
| 2026-04-26 11:16 | 51.17924 | 13.46725 | 5310 ft | 117 kts | 232° |
| 2026-04-26 11:16 | 51.17337 | 13.45835 | 5297 ft | 116 kts | 232° |
| 2026-04-26 11:16 | 51.16747 | 13.44947 | 5298 ft | 117 kts | 233° |
| 2026-04-26 11:17 | 51.16147 | 13.44034 | 5312 ft | 120 kts | 233° |
| 2026-04-26 11:17 | 51.15547 | 13.43105 | 5312 ft | 123 kts | 232° |
| 2026-04-26 11:17 | 51.14937 | 13.42158 | 5296 ft | 119 kts | 232° |
| 2026-04-26 11:17 | 51.14351 | 13.41245 | 5307 ft | 119 kts | 233° |
| 2026-04-26 11:18 | 51.13751 | 13.40335 | 5301 ft | 117 kts | 232° |
| 2026-04-26 11:18 | 51.13161 | 13.39449 | 5295 ft | 116 kts | 233° |
| 2026-04-26 11:18 | 51.12921 | 13.38378 | 5290 ft | 101 kts | 271° |
| 2026-04-26 11:18 | 51.12863 | 13.37248 | 5296 ft | 104 kts | 270° |
| 2026-04-26 11:19 | 51.12803 | 13.36072 | 5300 ft | 108 kts | 270° |
| 2026-04-26 11:19 | 51.12743 | 13.34882 | 5295 ft | 108 kts | 270° |
| 2026-04-26 11:19 | 51.12681 | 13.33703 | 5295 ft | 107 kts | 271° |
| 2026-04-26 11:19 | 51.12618 | 13.32524 | 5298 ft | 108 kts | 270° |
| 2026-04-26 11:20 | 51.12559 | 13.31324 | 5295 ft | 107 kts | 270° |
| 2026-04-26 11:20 | 51.12521 | 13.30548 | 5291 ft | 106 kts | 270° |
| 2026-04-26 11:20 | 51.12444 | 13.29000 | 5286 ft | 104 kts | 270° |
| 2026-04-26 11:20 | 51.12386 | 13.27841 | 5289 ft | 106 kts | 270° |
| 2026-04-26 11:21 | 51.12326 | 13.26666 | 5292 ft | 107 kts | 270° |
| 2026-04-26 11:21 | 51.12267 | 13.25492 | 5293 ft | 107 kts | 270° |
| 2026-04-26 11:21 | 51.12213 | 13.24316 | 5295 ft | 108 kts | 270° |
| 2026-04-26 11:21 | 51.12155 | 13.23119 | 5289 ft | 107 kts | 269° |
| 2026-04-26 11:22 | 51.12101 | 13.21949 | 5291 ft | 106 kts | 271° |
| 2026-04-26 11:22 | 51.12066 | 13.21167 | 5291 ft | 107 kts | 270° |
| 2026-04-26 11:22 | 51.11984 | 13.19598 | 5282 ft | 107 kts | 270° |
| 2026-04-26 11:22 | 51.11948 | 13.18808 | 5286 ft | 108 kts | 270° |
| 2026-04-26 11:23 | 51.11869 | 13.17231 | 5287 ft | 107 kts | 270° |
| 2026-04-26 11:23 | 51.11830 | 13.16440 | 5287 ft | 108 kts | 271° |
| 2026-04-26 11:23 | 51.11580 | 13.15299 | 5287 ft | 110 kts | 250° |
| 2026-04-26 11:23 | 51.11255 | 13.14201 | 5283 ft | 110 kts | 252° |
| 2026-04-26 11:24 | 51.10925 | 13.13076 | 5282 ft | 112 kts | 251° |
| 2026-04-26 11:24 | 51.10599 | 13.11971 | 5285 ft | 110 kts | 251° |
| 2026-04-26 11:24 | 51.10272 | 13.10863 | 5288 ft | 111 kts | 251° |
| 2026-04-26 11:24 | 51.09945 | 13.09763 | 5297 ft | 112 kts | 250° |
| 2026-04-26 11:25 | 51.09609 | 13.08641 | 5293 ft | 113 kts | 251° |
| 2026-04-26 11:25 | 51.09278 | 13.07515 | 5291 ft | 113 kts | 251° |
| 2026-04-26 11:25 | 51.08945 | 13.06373 | 5289 ft | 112 kts | 251° |
| 2026-04-26 11:25 | 51.08627 | 13.05266 | 5291 ft | 110 kts | 258° |
| 2026-04-26 11:26 | 51.08528 | 13.04061 | 5291 ft | 110 kts | 269° |
| 2026-04-26 11:26 | 51.08444 | 13.02858 | 5290 ft | 110 kts | 268° |
| 2026-04-26 11:26 | 51.08337 | 13.01648 | 5286 ft | 109 kts | 265° |
| 2026-04-26 11:26 | 51.08210 | 13.00478 | 5292 ft | 107 kts | 265° |
| 2026-04-26 11:27 | 51.08075 | 12.99306 | 5298 ft | 109 kts | 264° |
| 2026-04-26 11:27 | 51.07935 | 12.98127 | 5294 ft | 110 kts | 264° |
| 2026-04-26 11:27 | 51.07788 | 12.96929 | 5300 ft | 110 kts | 264° |
| 2026-04-26 11:27 | 51.07641 | 12.95732 | 5295 ft | 109 kts | 264° |
| 2026-04-26 11:28 | 51.07495 | 12.94552 | 5293 ft | 109 kts | 264° |
| 2026-04-26 11:28 | 51.07348 | 12.93372 | 5292 ft | 109 kts | 264° |
| 2026-04-26 11:28 | 51.07201 | 12.92182 | 5293 ft | 109 kts | 264° |
| 2026-04-26 11:28 | 51.07057 | 12.91019 | 5299 ft | 109 kts | 264° |
| 2026-04-26 11:29 | 51.06908 | 12.89820 | 5303 ft | 110 kts | 263° |
| 2026-04-26 11:29 | 51.06900 | 12.89753 | 5303 ft | 110 kts | 264° |